sensor_id;sensor_type;location;lat;lon;timestamp;P1;durP1;ratioP1;P2;durP2;ratioP2
21886;SDS011;11108;49.988;8.182;2022-11-20T00:00:40;3.47;;;3.27;;
21886;SDS011;11108;49.988;8.182;2022-11-20T00:03:05;2.77;;;2.63;;
21886;SDS011;11108;49.988;8.182;2022-11-20T00:05:32;3.20;;;3.00;;
21886;SDS011;11108;49.988;8.182;2022-11-20T00:07:57;3.50;;;3.30;;
21886;SDS011;11108;49.988;8.182;2022-11-20T00:10:22;3.83;;;3.60;;
21886;SDS011;11108;49.988;8.182;2022-11-20T00:12:47;3.50;;;3.13;;
21886;SDS011;11108;49.988;8.182;2022-11-20T00:15:12;4.70;;;3.43;;
21886;SDS011;11108;49.988;8.182;2022-11-20T00:17:38;3.97;;;3.57;;
21886;SDS011;11108;49.988;8.182;2022-11-20T00:20:03;4.00;;;3.70;;
21886;SDS011;11108;49.988;8.182;2022-11-20T00:22:28;3.90;;;3.40;;
21886;SDS011;11108;49.988;8.182;2022-11-20T00:24:53;3.77;;;3.53;;
21886;SDS011;11108;49.988;8.182;2022-11-20T00:27:18;3.70;;;3.40;;
21886;SDS011;11108;49.988;8.182;2022-11-20T00:29:44;3.83;;;3.63;;
21886;SDS011;11108;49.988;8.182;2022-11-20T00:32:09;3.93;;;3.40;;
21886;SDS011;11108;49.988;8.182;2022-11-20T00:34:34;4.10;;;3.20;;
21886;SDS011;11108;49.988;8.182;2022-11-20T00:36:59;4.00;;;3.60;;
21886;SDS011;11108;49.988;8.182;2022-11-20T00:39:24;3.57;;;3.30;;
21886;SDS011;11108;49.988;8.182;2022-11-20T00:41:50;3.90;;;3.60;;
21886;SDS011;11108;49.988;8.182;2022-11-20T00:44:15;4.00;;;3.70;;
21886;SDS011;11108;49.988;8.182;2022-11-20T00:46:40;4.30;;;3.77;;
21886;SDS011;11108;49.988;8.182;2022-11-20T00:49:05;3.30;;;3.03;;
21886;SDS011;11108;49.988;8.182;2022-11-20T00:51:30;3.30;;;3.03;;
21886;SDS011;11108;49.988;8.182;2022-11-20T00:53:56;4.10;;;3.80;;
21886;SDS011;11108;49.988;8.182;2022-11-20T00:56:21;3.63;;;3.43;;
21886;SDS011;11108;49.988;8.182;2022-11-20T00:58:47;3.80;;;3.50;;
21886;SDS011;11108;49.988;8.182;2022-11-20T01:01:14;4.23;;;3.93;;
21886;SDS011;11108;49.988;8.182;2022-11-20T01:03:41;3.73;;;3.47;;
21886;SDS011;11108;49.988;8.182;2022-11-20T01:06:07;3.43;;;3.23;;
21886;SDS011;11108;49.988;8.182;2022-11-20T01:08:33;3.83;;;3.63;;
21886;SDS011;11108;49.988;8.182;2022-11-20T01:11:03;4.13;;;3.73;;
21886;SDS011;11108;49.988;8.182;2022-11-20T01:13:29;3.80;;;3.50;;
21886;SDS011;11108;49.988;8.182;2022-11-20T01:16:07;3.53;;;3.33;;
21886;SDS011;11108;49.988;8.182;2022-11-20T01:18:33;3.23;;;3.03;;
21886;SDS011;11108;49.988;8.182;2022-11-20T01:21:05;3.50;;;3.23;;
21886;SDS011;11108;49.988;8.182;2022-11-20T01:23:34;4.37;;;3.80;;
21886;SDS011;11108;49.988;8.182;2022-11-20T01:26:01;3.67;;;3.37;;
21886;SDS011;11108;49.988;8.182;2022-11-20T01:28:26;4.00;;;3.70;;
21886;SDS011;11108;49.988;8.182;2022-11-20T01:30:53;4.33;;;4.03;;
21886;SDS011;11108;49.988;8.182;2022-11-20T01:33:18;3.63;;;3.33;;
21886;SDS011;11108;49.988;8.182;2022-11-20T01:35:43;3.53;;;3.33;;
21886;SDS011;11108;49.988;8.182;2022-11-20T01:38:08;3.43;;;3.23;;
21886;SDS011;11108;49.988;8.182;2022-11-20T01:40:33;3.43;;;3.23;;
21886;SDS011;11108;49.988;8.182;2022-11-20T01:43:09;4.70;;;3.33;;
21886;SDS011;11108;49.988;8.182;2022-11-20T01:48:23;3.13;;;3.00;;
21886;SDS011;11108;49.988;8.182;2022-11-20T01:50:50;3.57;;;3.37;;
21886;SDS011;11108;49.988;8.182;2022-11-20T01:53:16;4.07;;;3.73;;
21886;SDS011;11108;49.988;8.182;2022-11-20T01:55:47;3.70;;;3.47;;
21886;SDS011;11108;49.988;8.182;2022-11-20T01:58:13;3.67;;;3.43;;
21886;SDS011;11108;49.988;8.182;2022-11-20T02:00:39;3.63;;;3.33;;
21886;SDS011;11108;49.988;8.182;2022-11-20T02:03:09;3.30;;;3.10;;
21886;SDS011;11108;49.988;8.182;2022-11-20T02:08:20;3.40;;;3.20;;
21886;SDS011;11108;49.988;8.182;2022-11-20T02:10:46;3.50;;;3.30;;
21886;SDS011;11108;49.988;8.182;2022-11-20T02:13:11;3.40;;;3.20;;
21886;SDS011;11108;49.988;8.182;2022-11-20T02:15:55;3.27;;;3.07;;
21886;SDS011;11108;49.988;8.182;2022-11-20T02:18:20;3.50;;;3.20;;
21886;SDS011;11108;49.988;8.182;2022-11-20T02:20:46;3.70;;;3.50;;
21886;SDS011;11108;49.988;8.182;2022-11-20T02:23:12;3.63;;;3.30;;
21886;SDS011;11108;49.988;8.182;2022-11-20T02:25:41;3.60;;;3.40;;
21886;SDS011;11108;49.988;8.182;2022-11-20T02:28:07;3.77;;;3.50;;
21886;SDS011;11108;49.988;8.182;2022-11-20T02:30:33;3.30;;;3.00;;
21886;SDS011;11108;49.988;8.182;2022-11-20T02:32:58;3.87;;;3.57;;
21886;SDS011;11108;49.988;8.182;2022-11-20T02:37:50;3.57;;;3.37;;
21886;SDS011;11108;49.988;8.182;2022-11-20T02:40:15;3.93;;;3.63;;
21886;SDS011;11108;49.988;8.182;2022-11-20T02:42:41;3.23;;;2.93;;
21886;SDS011;11108;49.988;8.182;2022-11-20T02:45:06;3.83;;;3.53;;
21886;SDS011;11108;49.988;8.182;2022-11-20T02:47:31;3.80;;;3.53;;
21886;SDS011;11108;49.988;8.182;2022-11-20T02:49:57;3.27;;;3.07;;
21886;SDS011;11108;49.988;8.182;2022-11-20T02:52:22;4.03;;;3.67;;
21886;SDS011;11108;49.988;8.182;2022-11-20T02:54:47;4.53;;;3.50;;
21886;SDS011;11108;49.988;8.182;2022-11-20T02:57:12;3.40;;;3.10;;
21886;SDS011;11108;49.988;8.182;2022-11-20T02:59:38;3.63;;;3.43;;
21886;SDS011;11108;49.988;8.182;2022-11-20T03:02:03;4.17;;;3.77;;
21886;SDS011;11108;49.988;8.182;2022-11-20T03:04:28;4.80;;;3.87;;
21886;SDS011;11108;49.988;8.182;2022-11-20T03:06:53;4.50;;;4.07;;
21886;SDS011;11108;49.988;8.182;2022-11-20T03:09:18;3.73;;;3.43;;
21886;SDS011;11108;49.988;8.182;2022-11-20T03:11:44;3.83;;;3.53;;
21886;SDS011;11108;49.988;8.182;2022-11-20T03:14:09;3.50;;;3.20;;
21886;SDS011;11108;49.988;8.182;2022-11-20T03:16:34;3.73;;;3.53;;
21886;SDS011;11108;49.988;8.182;2022-11-20T03:18:59;4.00;;;3.70;;
21886;SDS011;11108;49.988;8.182;2022-11-20T03:21:25;3.27;;;3.10;;
21886;SDS011;11108;49.988;8.182;2022-11-20T03:23:50;4.33;;;3.93;;
21886;SDS011;11108;49.988;8.182;2022-11-20T03:26:22;3.80;;;3.50;;
21886;SDS011;11108;49.988;8.182;2022-11-20T03:28:48;3.43;;;3.13;;
21886;SDS011;11108;49.988;8.182;2022-11-20T03:31:15;3.83;;;3.60;;
21886;SDS011;11108;49.988;8.182;2022-11-20T03:33:41;3.87;;;3.60;;
21886;SDS011;11108;49.988;8.182;2022-11-20T03:36:07;3.97;;;3.67;;
21886;SDS011;11108;49.988;8.182;2022-11-20T03:38:33;3.67;;;3.30;;
21886;SDS011;11108;49.988;8.182;2022-11-20T03:40:59;3.73;;;3.43;;
21886;SDS011;11108;49.988;8.182;2022-11-20T03:43:25;4.10;;;3.80;;
21886;SDS011;11108;49.988;8.182;2022-11-20T03:45:51;3.60;;;3.40;;
21886;SDS011;11108;49.988;8.182;2022-11-20T03:48:16;3.93;;;3.63;;
21886;SDS011;11108;49.988;8.182;2022-11-20T03:50:41;4.40;;;4.10;;
21886;SDS011;11108;49.988;8.182;2022-11-20T03:53:06;4.10;;;3.80;;
21886;SDS011;11108;49.988;8.182;2022-11-20T03:55:31;3.50;;;3.20;;
21886;SDS011;11108;49.988;8.182;2022-11-20T03:57:57;3.93;;;3.70;;
21886;SDS011;11108;49.988;8.182;2022-11-20T04:00:22;3.90;;;3.60;;
21886;SDS011;11108;49.988;8.182;2022-11-20T04:02:47;3.90;;;3.60;;
21886;SDS011;11108;49.988;8.182;2022-11-20T04:05:12;3.57;;;3.37;;
21886;SDS011;11108;49.988;8.182;2022-11-20T04:07:37;3.83;;;3.53;;
21886;SDS011;11108;49.988;8.182;2022-11-20T04:10:03;4.03;;;3.63;;
21886;SDS011;11108;49.988;8.182;2022-11-20T04:12:31;4.33;;;4.03;;
21886;SDS011;11108;49.988;8.182;2022-11-20T04:14:57;3.70;;;3.50;;
21886;SDS011;11108;49.988;8.182;2022-11-20T04:17:22;3.87;;;3.67;;
21886;SDS011;11108;49.988;8.182;2022-11-20T04:19:47;3.70;;;3.50;;
21886;SDS011;11108;49.988;8.182;2022-11-20T04:22:12;4.00;;;3.80;;
21886;SDS011;11108;49.988;8.182;2022-11-20T04:24:38;3.77;;;3.53;;
21886;SDS011;11108;49.988;8.182;2022-11-20T04:27:03;3.63;;;3.43;;
21886;SDS011;11108;49.988;8.182;2022-11-20T04:29:28;4.50;;;3.90;;
21886;SDS011;11108;49.988;8.182;2022-11-20T04:31:53;4.20;;;3.90;;
21886;SDS011;11108;49.988;8.182;2022-11-20T04:34:18;3.80;;;3.57;;
21886;SDS011;11108;49.988;8.182;2022-11-20T04:36:44;4.17;;;3.87;;
21886;SDS011;11108;49.988;8.182;2022-11-20T04:39:12;3.80;;;3.50;;
21886;SDS011;11108;49.988;8.182;2022-11-20T04:41:39;3.43;;;3.23;;
21886;SDS011;11108;49.988;8.182;2022-11-20T04:44:04;3.73;;;3.47;;
21886;SDS011;11108;49.988;8.182;2022-11-20T04:46:31;4.37;;;4.00;;
21886;SDS011;11108;49.988;8.182;2022-11-20T04:48:58;3.70;;;3.40;;
21886;SDS011;11108;49.988;8.182;2022-11-20T04:51:23;3.97;;;3.73;;
21886;SDS011;11108;49.988;8.182;2022-11-20T04:53:49;3.80;;;3.60;;
21886;SDS011;11108;49.988;8.182;2022-11-20T04:56:14;4.23;;;3.83;;
21886;SDS011;11108;49.988;8.182;2022-11-20T04:58:39;4.10;;;3.80;;
21886;SDS011;11108;49.988;8.182;2022-11-20T05:01:12;3.77;;;3.47;;
21886;SDS011;11108;49.988;8.182;2022-11-20T05:03:38;4.60;;;4.30;;
21886;SDS011;11108;49.988;8.182;2022-11-20T05:06:03;4.07;;;3.77;;
21886;SDS011;11108;49.988;8.182;2022-11-20T05:08:29;3.27;;;3.07;;
21886;SDS011;11108;49.988;8.182;2022-11-20T05:10:59;3.60;;;3.40;;
21886;SDS011;11108;49.988;8.182;2022-11-20T05:13:24;4.10;;;3.80;;
21886;SDS011;11108;49.988;8.182;2022-11-20T05:15:49;3.50;;;3.30;;
21886;SDS011;11108;49.988;8.182;2022-11-20T05:18:14;3.97;;;3.67;;
21886;SDS011;11108;49.988;8.182;2022-11-20T05:20:39;4.33;;;4.03;;
21886;SDS011;11108;49.988;8.182;2022-11-20T05:23:05;3.90;;;3.60;;
21886;SDS011;11108;49.988;8.182;2022-11-20T05:25:30;4.40;;;4.00;;
21886;SDS011;11108;49.988;8.182;2022-11-20T05:27:55;4.47;;;4.07;;
21886;SDS011;11108;49.988;8.182;2022-11-20T05:30:20;4.43;;;4.10;;
21886;SDS011;11108;49.988;8.182;2022-11-20T05:32:45;4.03;;;3.77;;
21886;SDS011;11108;49.988;8.182;2022-11-20T05:35:10;4.23;;;3.83;;
21886;SDS011;11108;49.988;8.182;2022-11-20T05:37:36;3.93;;;3.63;;
21886;SDS011;11108;49.988;8.182;2022-11-20T05:40:01;3.50;;;3.30;;
21886;SDS011;11108;49.988;8.182;2022-11-20T05:42:29;4.03;;;3.83;;
21886;SDS011;11108;49.988;8.182;2022-11-20T05:44:58;4.17;;;3.80;;
21886;SDS011;11108;49.988;8.182;2022-11-20T05:47:23;4.73;;;4.40;;
21886;SDS011;11108;49.988;8.182;2022-11-20T05:49:48;4.57;;;4.17;;
21886;SDS011;11108;49.988;8.182;2022-11-20T05:52:14;4.13;;;3.83;;
21886;SDS011;11108;49.988;8.182;2022-11-20T05:54:39;4.00;;;3.80;;
21886;SDS011;11108;49.988;8.182;2022-11-20T05:57:04;3.93;;;3.63;;
21886;SDS011;11108;49.988;8.182;2022-11-20T05:59:29;4.03;;;3.73;;
21886;SDS011;11108;49.988;8.182;2022-11-20T06:01:54;4.27;;;3.97;;
21886;SDS011;11108;49.988;8.182;2022-11-20T06:04:19;3.90;;;3.67;;
21886;SDS011;11108;49.988;8.182;2022-11-20T06:06:45;4.20;;;3.90;;
21886;SDS011;11108;49.988;8.182;2022-11-20T06:09:10;3.77;;;3.47;;
21886;SDS011;11108;49.988;8.182;2022-11-20T06:11:35;3.83;;;3.53;;
21886;SDS011;11108;49.988;8.182;2022-11-20T06:14:00;4.33;;;4.03;;
21886;SDS011;11108;49.988;8.182;2022-11-20T06:16:25;3.57;;;3.37;;
21886;SDS011;11108;49.988;8.182;2022-11-20T06:18:51;3.90;;;3.70;;
21886;SDS011;11108;49.988;8.182;2022-11-20T06:21:17;3.90;;;3.70;;
21886;SDS011;11108;49.988;8.182;2022-11-20T06:23:42;3.87;;;3.57;;
21886;SDS011;11108;49.988;8.182;2022-11-20T06:26:15;3.83;;;3.63;;
21886;SDS011;11108;49.988;8.182;2022-11-20T06:28:41;4.20;;;3.90;;
21886;SDS011;11108;49.988;8.182;2022-11-20T06:31:06;4.13;;;3.83;;
21886;SDS011;11108;49.988;8.182;2022-11-20T06:33:31;3.87;;;3.57;;
21886;SDS011;11108;49.988;8.182;2022-11-20T06:35:57;3.73;;;3.53;;
21886;SDS011;11108;49.988;8.182;2022-11-20T06:38:23;3.73;;;3.53;;
21886;SDS011;11108;49.988;8.182;2022-11-20T06:40:48;3.80;;;3.50;;
21886;SDS011;11108;49.988;8.182;2022-11-20T06:43:14;4.23;;;3.93;;
21886;SDS011;11108;49.988;8.182;2022-11-20T06:45:39;4.27;;;3.97;;
21886;SDS011;11108;49.988;8.182;2022-11-20T06:48:04;3.73;;;3.53;;
21886;SDS011;11108;49.988;8.182;2022-11-20T06:50:29;3.40;;;3.20;;
21886;SDS011;11108;49.988;8.182;2022-11-20T06:52:54;3.87;;;3.67;;
21886;SDS011;11108;49.988;8.182;2022-11-20T06:55:20;3.77;;;3.47;;
21886;SDS011;11108;49.988;8.182;2022-11-20T06:57:45;3.90;;;3.70;;
21886;SDS011;11108;49.988;8.182;2022-11-20T07:00:10;4.00;;;3.73;;
21886;SDS011;11108;49.988;8.182;2022-11-20T07:02:36;3.40;;;3.20;;
21886;SDS011;11108;49.988;8.182;2022-11-20T07:05:01;3.40;;;3.20;;
21886;SDS011;11108;49.988;8.182;2022-11-20T07:07:26;4.07;;;3.77;;
21886;SDS011;11108;49.988;8.182;2022-11-20T07:09:51;4.10;;;3.80;;
21886;SDS011;11108;49.988;8.182;2022-11-20T07:12:16;4.13;;;3.83;;
21886;SDS011;11108;49.988;8.182;2022-11-20T07:14:41;3.70;;;3.50;;
21886;SDS011;11108;49.988;8.182;2022-11-20T07:17:07;4.20;;;3.90;;
21886;SDS011;11108;49.988;8.182;2022-11-20T07:19:32;4.00;;;3.70;;
21886;SDS011;11108;49.988;8.182;2022-11-20T07:21:57;3.63;;;3.43;;
21886;SDS011;11108;49.988;8.182;2022-11-20T07:24:22;3.50;;;3.30;;
21886;SDS011;11108;49.988;8.182;2022-11-20T07:26:48;3.73;;;3.43;;
21886;SDS011;11108;49.988;8.182;2022-11-20T07:29:14;3.70;;;3.50;;
21886;SDS011;11108;49.988;8.182;2022-11-20T07:31:39;4.00;;;3.80;;
21886;SDS011;11108;49.988;8.182;2022-11-20T07:34:04;3.83;;;3.63;;
21886;SDS011;11108;49.988;8.182;2022-11-20T07:36:29;3.97;;;3.67;;
21886;SDS011;11108;49.988;8.182;2022-11-20T07:38:55;4.30;;;4.00;;
21886;SDS011;11108;49.988;8.182;2022-11-20T07:41:20;4.20;;;3.90;;
21886;SDS011;11108;49.988;8.182;2022-11-20T07:43:45;4.03;;;3.73;;
21886;SDS011;11108;49.988;8.182;2022-11-20T07:46:10;3.90;;;3.60;;
21886;SDS011;11108;49.988;8.182;2022-11-20T07:48:35;4.07;;;3.77;;
21886;SDS011;11108;49.988;8.182;2022-11-20T07:51:01;3.47;;;3.27;;
21886;SDS011;11108;49.988;8.182;2022-11-20T07:53:26;3.80;;;3.60;;
21886;SDS011;11108;49.988;8.182;2022-11-20T07:55:51;3.63;;;3.37;;
21886;SDS011;11108;49.988;8.182;2022-11-20T07:58:17;3.90;;;3.57;;
21886;SDS011;11108;49.988;8.182;2022-11-20T08:00:42;3.97;;;3.67;;
21886;SDS011;11108;49.988;8.182;2022-11-20T08:03:08;3.30;;;3.10;;
21886;SDS011;11108;49.988;8.182;2022-11-20T08:05:33;3.83;;;3.63;;
21886;SDS011;11108;49.988;8.182;2022-11-20T08:07:58;4.30;;;4.00;;
21886;SDS011;11108;49.988;8.182;2022-11-20T08:10:23;3.83;;;3.53;;
21886;SDS011;11108;49.988;8.182;2022-11-20T08:12:50;4.13;;;3.83;;
21886;SDS011;11108;49.988;8.182;2022-11-20T08:15:34;4.20;;;3.90;;
21886;SDS011;11108;49.988;8.182;2022-11-20T08:18:10;4.40;;;4.10;;
21886;SDS011;11108;49.988;8.182;2022-11-20T08:20:38;3.63;;;3.40;;
21886;SDS011;11108;49.988;8.182;2022-11-20T08:23:04;3.83;;;3.53;;
21886;SDS011;11108;49.988;8.182;2022-11-20T08:25:33;3.80;;;3.60;;
21886;SDS011;11108;49.988;8.182;2022-11-20T08:27:59;4.37;;;4.07;;
21886;SDS011;11108;49.988;8.182;2022-11-20T08:30:25;4.47;;;4.17;;
21886;SDS011;11108;49.988;8.182;2022-11-20T08:32:50;4.77;;;4.47;;
21886;SDS011;11108;49.988;8.182;2022-11-20T08:35:15;4.20;;;3.90;;
21886;SDS011;11108;49.988;8.182;2022-11-20T08:37:41;3.80;;;3.50;;
21886;SDS011;11108;49.988;8.182;2022-11-20T08:40:07;5.53;;;3.73;;
21886;SDS011;11108;49.988;8.182;2022-11-20T08:42:33;4.20;;;3.63;;
21886;SDS011;11108;49.988;8.182;2022-11-20T08:44:58;3.80;;;3.53;;
21886;SDS011;11108;49.988;8.182;2022-11-20T08:47:23;4.10;;;3.70;;
21886;SDS011;11108;49.988;8.182;2022-11-20T08:49:48;4.03;;;3.73;;
21886;SDS011;11108;49.988;8.182;2022-11-20T08:52:13;4.00;;;3.70;;
21886;SDS011;11108;49.988;8.182;2022-11-20T08:54:39;4.10;;;3.80;;
21886;SDS011;11108;49.988;8.182;2022-11-20T08:57:04;4.27;;;3.97;;
21886;SDS011;11108;49.988;8.182;2022-11-20T08:59:29;4.03;;;3.73;;
21886;SDS011;11108;49.988;8.182;2022-11-20T09:01:55;3.87;;;3.60;;
21886;SDS011;11108;49.988;8.182;2022-11-20T09:04:21;4.07;;;3.77;;
21886;SDS011;11108;49.988;8.182;2022-11-20T09:06:46;4.03;;;3.63;;
21886;SDS011;11108;49.988;8.182;2022-11-20T09:09:15;5.60;;;4.80;;
21886;SDS011;11108;49.988;8.182;2022-11-20T09:11:40;4.00;;;3.70;;
21886;SDS011;11108;49.988;8.182;2022-11-20T09:14:06;4.50;;;4.10;;
21886;SDS011;11108;49.988;8.182;2022-11-20T09:16:31;4.03;;;3.73;;
21886;SDS011;11108;49.988;8.182;2022-11-20T09:18:56;3.80;;;3.50;;
21886;SDS011;11108;49.988;8.182;2022-11-20T09:21:21;4.87;;;4.50;;
21886;SDS011;11108;49.988;8.182;2022-11-20T09:23:47;4.53;;;4.17;;
21886;SDS011;11108;49.988;8.182;2022-11-20T09:26:13;4.03;;;3.73;;
21886;SDS011;11108;49.988;8.182;2022-11-20T09:28:38;3.50;;;3.30;;
21886;SDS011;11108;49.988;8.182;2022-11-20T09:31:07;5.07;;;3.33;;
21886;SDS011;11108;49.988;8.182;2022-11-20T09:33:33;3.77;;;3.47;;
21886;SDS011;11108;49.988;8.182;2022-11-20T09:35:58;5.13;;;3.93;;
21886;SDS011;11108;49.988;8.182;2022-11-20T09:38:23;4.30;;;4.00;;
21886;SDS011;11108;49.988;8.182;2022-11-20T09:41:01;3.80;;;3.60;;
21886;SDS011;11108;49.988;8.182;2022-11-20T09:46:16;4.20;;;3.80;;
21886;SDS011;11108;49.988;8.182;2022-11-20T09:54:34;4.33;;;3.93;;
21886;SDS011;11108;49.988;8.182;2022-11-20T09:57:02;3.90;;;3.70;;
21886;SDS011;11108;49.988;8.182;2022-11-20T10:01:53;4.23;;;3.93;;
21886;SDS011;11108;49.988;8.182;2022-11-20T10:04:19;4.47;;;4.17;;
21886;SDS011;11108;49.988;8.182;2022-11-20T10:09:20;4.00;;;3.70;;
21886;SDS011;11108;49.988;8.182;2022-11-20T10:14:16;4.40;;;4.10;;
21886;SDS011;11108;49.988;8.182;2022-11-20T10:19:47;4.10;;;3.80;;
21886;SDS011;11108;49.988;8.182;2022-11-20T10:24:52;3.90;;;3.67;;
21886;SDS011;11108;49.988;8.182;2022-11-20T10:30:14;3.70;;;3.50;;
21886;SDS011;11108;49.988;8.182;2022-11-20T10:32:41;4.53;;;4.10;;
21886;SDS011;11108;49.988;8.182;2022-11-20T10:37:33;4.53;;;4.13;;
21886;SDS011;11108;49.988;8.182;2022-11-20T10:40:06;4.57;;;4.27;;
21886;SDS011;11108;49.988;8.182;2022-11-20T10:42:50;5.13;;;4.70;;
21886;SDS011;11108;49.988;8.182;2022-11-20T10:47:54;5.00;;;4.70;;
21886;SDS011;11108;49.988;8.182;2022-11-20T10:50:20;5.07;;;4.67;;
21886;SDS011;11108;49.988;8.182;2022-11-20T10:52:57;4.80;;;4.50;;
21886;SDS011;11108;49.988;8.182;2022-11-20T11:00:24;5.40;;;5.00;;
21886;SDS011;11108;49.988;8.182;2022-11-20T11:02:50;4.20;;;3.90;;
21886;SDS011;11108;49.988;8.182;2022-11-20T11:07:50;4.57;;;4.17;;
21886;SDS011;11108;49.988;8.182;2022-11-20T11:10:18;4.33;;;4.03;;
21886;SDS011;11108;49.988;8.182;2022-11-20T11:12:45;4.03;;;3.73;;
21886;SDS011;11108;49.988;8.182;2022-11-20T11:15:25;4.00;;;3.70;;
21886;SDS011;11108;49.988;8.182;2022-11-20T11:17:51;4.27;;;3.97;;
21886;SDS011;11108;49.988;8.182;2022-11-20T11:20:17;3.83;;;3.60;;
21886;SDS011;11108;49.988;8.182;2022-11-20T11:22:50;4.37;;;4.07;;
21886;SDS011;11108;49.988;8.182;2022-11-20T11:25:20;3.60;;;3.40;;
21886;SDS011;11108;49.988;8.182;2022-11-20T11:27:47;4.20;;;3.90;;
21886;SDS011;11108;49.988;8.182;2022-11-20T11:30:13;4.17;;;3.87;;
21886;SDS011;11108;49.988;8.182;2022-11-20T11:32:39;3.97;;;3.67;;
21886;SDS011;11108;49.988;8.182;2022-11-20T11:35:05;3.50;;;3.30;;
21886;SDS011;11108;49.988;8.182;2022-11-20T11:37:35;4.90;;;4.50;;
21886;SDS011;11108;49.988;8.182;2022-11-20T11:40:01;4.00;;;3.60;;
21886;SDS011;11108;49.988;8.182;2022-11-20T11:42:27;4.03;;;3.73;;
21886;SDS011;11108;49.988;8.182;2022-11-20T11:44:53;4.23;;;3.93;;
21886;SDS011;11108;49.988;8.182;2022-11-20T11:47:35;4.00;;;3.70;;
21886;SDS011;11108;49.988;8.182;2022-11-20T11:50:02;4.13;;;3.83;;
21886;SDS011;11108;49.988;8.182;2022-11-20T11:52:27;4.63;;;4.23;;
21886;SDS011;11108;49.988;8.182;2022-11-20T11:54:55;4.53;;;4.20;;
21886;SDS011;11108;49.988;8.182;2022-11-20T11:57:23;4.13;;;3.70;;
21886;SDS011;11108;49.988;8.182;2022-11-20T12:02:27;4.27;;;3.93;;
21886;SDS011;11108;49.988;8.182;2022-11-20T12:04:55;4.10;;;3.80;;
21886;SDS011;11108;49.988;8.182;2022-11-20T12:07:27;4.83;;;4.10;;
21886;SDS011;11108;49.988;8.182;2022-11-20T12:09:54;4.23;;;3.83;;
21886;SDS011;11108;49.988;8.182;2022-11-20T12:12:24;3.80;;;3.50;;
21886;SDS011;11108;49.988;8.182;2022-11-20T12:14:52;4.03;;;3.73;;
21886;SDS011;11108;49.988;8.182;2022-11-20T12:17:17;3.87;;;3.67;;
21886;SDS011;11108;49.988;8.182;2022-11-20T12:19:43;3.90;;;3.67;;
21886;SDS011;11108;49.988;8.182;2022-11-20T12:22:24;4.30;;;3.90;;
21886;SDS011;11108;49.988;8.182;2022-11-20T12:25:10;4.23;;;3.83;;
21886;SDS011;11108;49.988;8.182;2022-11-20T12:30:15;3.37;;;3.17;;
21886;SDS011;11108;49.988;8.182;2022-11-20T12:43:30;3.90;;;3.60;;
21886;SDS011;11108;49.988;8.182;2022-11-20T12:53:52;4.57;;;4.17;;
21886;SDS011;11108;49.988;8.182;2022-11-20T12:56:26;3.70;;;3.40;;
21886;SDS011;11108;49.988;8.182;2022-11-20T13:01:40;4.67;;;3.57;;
21886;SDS011;11108;49.988;8.182;2022-11-20T13:06:52;4.20;;;3.40;;
21886;SDS011;11108;49.988;8.182;2022-11-20T13:09:19;3.60;;;3.40;;
21886;SDS011;11108;49.988;8.182;2022-11-20T13:16:39;4.70;;;3.77;;
21886;SDS011;11108;49.988;8.182;2022-11-20T13:19:08;3.60;;;3.10;;
21886;SDS011;11108;49.988;8.182;2022-11-20T13:21:36;5.07;;;3.30;;
21886;SDS011;11108;49.988;8.182;2022-11-20T13:24:07;3.30;;;3.10;;
21886;SDS011;11108;49.988;8.182;2022-11-20T13:26:32;3.70;;;3.40;;
21886;SDS011;11108;49.988;8.182;2022-11-20T13:29:00;5.30;;;3.10;;
21886;SDS011;11108;49.988;8.182;2022-11-20T13:31:28;5.17;;;3.83;;
21886;SDS011;11108;49.988;8.182;2022-11-20T13:33:54;3.63;;;3.33;;
21886;SDS011;11108;49.988;8.182;2022-11-20T13:36:21;4.03;;;3.40;;
21886;SDS011;11108;49.988;8.182;2022-11-20T13:38:47;3.33;;;3.13;;
21886;SDS011;11108;49.988;8.182;2022-11-20T13:41:23;3.67;;;3.47;;
21886;SDS011;11108;49.988;8.182;2022-11-20T13:44:09;3.13;;;2.93;;
21886;SDS011;11108;49.988;8.182;2022-11-20T13:46:37;3.40;;;3.17;;
21886;SDS011;11108;49.988;8.182;2022-11-20T13:49:06;4.07;;;3.60;;
21886;SDS011;11108;49.988;8.182;2022-11-20T14:01:31;3.30;;;3.10;;
21886;SDS011;11108;49.988;8.182;2022-11-20T14:03:57;3.53;;;3.23;;
21886;SDS011;11108;49.988;8.182;2022-11-20T14:06:33;4.53;;;3.37;;
21886;SDS011;11108;49.988;8.182;2022-11-20T14:08:59;4.27;;;3.00;;
21886;SDS011;11108;49.988;8.182;2022-11-20T14:11:25;42.33;;;21.87;;
21886;SDS011;11108;49.988;8.182;2022-11-20T14:16:23;60.63;;;31.07;;
21886;SDS011;11108;49.988;8.182;2022-11-20T14:18:48;55.47;;;27.60;;
21886;SDS011;11108;49.988;8.182;2022-11-20T14:21:24;48.70;;;22.90;;
21886;SDS011;11108;49.988;8.182;2022-11-20T14:23:51;46.50;;;21.20;;
21886;SDS011;11108;49.988;8.182;2022-11-20T14:26:17;37.60;;;19.33;;
21886;SDS011;11108;49.988;8.182;2022-11-20T14:28:47;30.90;;;15.37;;
21886;SDS011;11108;49.988;8.182;2022-11-20T14:31:21;31.33;;;15.53;;
21886;SDS011;11108;49.988;8.182;2022-11-20T14:33:47;28.03;;;14.40;;
21886;SDS011;11108;49.988;8.182;2022-11-20T14:36:16;27.57;;;14.90;;
21886;SDS011;11108;49.988;8.182;2022-11-20T14:38:42;22.47;;;12.47;;
21886;SDS011;11108;49.988;8.182;2022-11-20T14:41:08;23.70;;;12.23;;
21886;SDS011;11108;49.988;8.182;2022-11-20T14:43:33;22.43;;;12.30;;
21886;SDS011;11108;49.988;8.182;2022-11-20T14:46:10;19.93;;;11.23;;
21886;SDS011;11108;49.988;8.182;2022-11-20T14:48:40;22.83;;;12.47;;
21886;SDS011;11108;49.988;8.182;2022-11-20T14:51:08;23.23;;;10.83;;
21886;SDS011;11108;49.988;8.182;2022-11-20T14:53:33;19.03;;;9.60;;
21886;SDS011;11108;49.988;8.182;2022-11-20T14:56:00;15.20;;;9.63;;
21886;SDS011;11108;49.988;8.182;2022-11-20T14:58:34;17.37;;;9.83;;
21886;SDS011;11108;49.988;8.182;2022-11-20T15:01:07;12.97;;;9.47;;
21886;SDS011;11108;49.988;8.182;2022-11-20T15:05:57;16.30;;;8.87;;
21886;SDS011;11108;49.988;8.182;2022-11-20T15:08:22;13.43;;;8.67;;
21886;SDS011;11108;49.988;8.182;2022-11-20T15:10:48;12.87;;;7.23;;
21886;SDS011;11108;49.988;8.182;2022-11-20T15:13:16;10.87;;;6.97;;
21886;SDS011;11108;49.988;8.182;2022-11-20T15:15:46;11.23;;;6.87;;
21886;SDS011;11108;49.988;8.182;2022-11-20T15:18:17;9.70;;;6.83;;
21886;SDS011;11108;49.988;8.182;2022-11-20T15:20:42;9.37;;;6.50;;
21886;SDS011;11108;49.988;8.182;2022-11-20T15:23:12;8.60;;;6.17;;
21886;SDS011;11108;49.988;8.182;2022-11-20T15:25:38;10.53;;;6.20;;
21886;SDS011;11108;49.988;8.182;2022-11-20T15:28:04;10.40;;;5.60;;
21886;SDS011;11108;49.988;8.182;2022-11-20T15:30:29;9.47;;;6.30;;
21886;SDS011;11108;49.988;8.182;2022-11-20T15:32:55;9.53;;;5.83;;
21886;SDS011;11108;49.988;8.182;2022-11-20T15:35:20;5.90;;;5.30;;
21886;SDS011;11108;49.988;8.182;2022-11-20T15:37:45;9.20;;;5.63;;
21886;SDS011;11108;49.988;8.182;2022-11-20T15:40:10;6.63;;;5.53;;
21886;SDS011;11108;49.988;8.182;2022-11-20T15:42:36;7.30;;;5.10;;
21886;SDS011;11108;49.988;8.182;2022-11-20T15:45:01;6.07;;;5.10;;
21886;SDS011;11108;49.988;8.182;2022-11-20T15:47:28;6.30;;;4.63;;
21886;SDS011;11108;49.988;8.182;2022-11-20T15:49:54;5.93;;;5.10;;
21886;SDS011;11108;49.988;8.182;2022-11-20T15:52:19;5.83;;;4.53;;
21886;SDS011;11108;49.988;8.182;2022-11-20T15:54:44;6.73;;;5.77;;
21886;SDS011;11108;49.988;8.182;2022-11-20T15:57:09;6.20;;;5.40;;
21886;SDS011;11108;49.988;8.182;2022-11-20T15:59:35;4.40;;;4.00;;
21886;SDS011;11108;49.988;8.182;2022-11-20T16:02:08;6.67;;;5.50;;
21886;SDS011;11108;49.988;8.182;2022-11-20T16:04:33;7.03;;;4.67;;
21886;SDS011;11108;49.988;8.182;2022-11-20T16:06:58;5.13;;;4.60;;
21886;SDS011;11108;49.988;8.182;2022-11-20T16:09:24;5.83;;;5.23;;
21886;SDS011;11108;49.988;8.182;2022-11-20T16:11:49;6.53;;;4.80;;
21886;SDS011;11108;49.988;8.182;2022-11-20T16:14:14;5.30;;;4.70;;
21886;SDS011;11108;49.988;8.182;2022-11-20T16:16:58;4.50;;;4.10;;